Time;durP1;ratioP1;P1;durP2;ratioP2;P2;SDS_P1;SDS_P2;PMS_P1;PMS_P2;Temp;Humidity;BMP_temperature;BMP_pressure;BME280_temperature;BME280_humidity;BME280_pressure;Samples;Min_cycle;Max_cycle;Signal;HPM_P1;HPM_P2
2022/09/27 00:01:47;;;;;;;4.60;2.93;;;13.10;1.00;;;;;;4989211;28;20490;-87
2022/09/27 00:04:17;;;;;;;3.67;2.60;;;13.10;1.00;;;;;;4967147;28;20463;-87
2022/09/27 00:07:10;;;;;;;3.60;2.30;;;13.10;1.00;;;;;;5218250;23;20451;-87
2022/09/27 00:09:41;;;;;;;4.43;2.57;;;13.10;1.00;;;;;;5035893;28;20560;-88
2022/09/27 00:12:16;;;;;;;4.47;2.80;;;13.10;1.00;;;;;;5017943;28;20499;-88
2022/09/27 00:14:49;;;;;;;4.90;3.00;;;13.10;1.00;;;;;;5023576;28;20433;-87
2022/09/27 00:17:18;;;;;;;4.07;2.87;;;13.10;1.00;;;;;;5035345;28;20449;-88
2022/09/27 00:19:47;;;;;;;5.20;3.20;;;13.10;1.00;;;;;;5037551;28;20996;-88
2022/09/27 00:22:24;;;;;;;5.13;2.73;;;13.10;1.00;;;;;;5019278;28;20468;-89
2022/09/27 00:24:56;;;;;;;5.23;2.50;;;13.00;1.00;;;;;;5016460;28;20520;-88
2022/09/27 00:27:25;;;;;;;5.30;3.40;;;13.00;1.00;;;;;;5024502;28;20465;-86
2022/09/27 00:29:54;;;;;;;4.53;2.77;;;13.00;1.00;;;;;;5036726;28;20466;-87
2022/09/27 00:32:25;;;;;;;3.97;2.90;;;12.90;1.00;;;;;;5018578;28;20456;-88
2022/09/27 00:34:55;;;;;;;4.27;2.77;;;12.90;1.00;;;;;;5026291;28;20453;-88
2022/09/27 00:37:26;;;;;;;4.70;2.73;;;12.90;1.00;;;;;;5017815;28;20987;-87
2022/09/27 00:39:57;;;;;;;4.33;2.73;;;12.90;1.00;;;;;;5027783;28;20460;-88
2022/09/27 00:42:26;;;;;;;4.80;3.10;;;12.90;1.00;;;;;;5025755;28;20560;-86
2022/09/27 00:45:09;;;;;;;4.40;2.73;;;12.90;1.00;;;;;;5037895;28;20429;-87
2022/09/27 00:47:43;;;;;;;4.00;2.87;;;12.90;1.00;;;;;;5029877;28;20444;-88
2022/09/27 00:50:28;;;;;;;5.17;3.00;;;12.90;1.00;;;;;;5024439;28;20424;-88
2022/09/27 00:53:18;;;;;;;4.17;2.57;;;12.90;1.00;;;;;;5005092;28;20566;-88
2022/09/27 00:55:53;;;;;;;6.07;3.20;;;12.80;1.00;;;;;;5019229;28;20505;-88
2022/09/27 00:58:28;;;;;;;4.77;2.70;;;12.80;1.00;;;;;;5015165;28;20474;-88
2022/09/27 01:01:01;;;;;;;5.93;3.00;;;12.80;1.00;;;;;;5025627;28;20566;-87
2022/09/27 01:03:38;;;;;;;4.43;2.83;;;12.70;1.00;;;;;;4997689;28;20467;-87
2022/09/27 01:06:09;;;;;;;4.90;3.33;;;12.80;1.00;;;;;;5017308;28;20504;-88
2022/09/27 01:08:36;;;;;;;5.87;2.30;;;12.80;1.00;;;;;;5011130;28;21437;-87
2022/09/27 01:11:35;;;;;;;5.20;2.80;;;12.80;1.00;;;;;;5014825;28;20446;-86
2022/09/27 01:17:34;;;;;;;4.73;3.03;;;12.80;1.00;;;;;;5009198;28;20462;-88
2022/09/27 01:20:30;;;;;;;4.73;2.90;;;12.90;1.00;;;;;;5020556;28;20559;-87
2022/09/27 01:23:17;;;;;;;4.87;2.90;;;12.90;1.00;;;;;;5035545;28;20466;-85
2022/09/27 01:26:03;;;;;;;3.80;2.70;;;12.90;1.00;;;;;;5019728;28;20457;-87
2022/09/27 01:28:48;;;;;;;4.93;2.60;;;12.90;1.00;;;;;;5029528;28;20412;-85
2022/09/27 01:31:27;;;;;;;6.10;2.63;;;12.90;1.00;;;;;;5043338;28;20457;-88
2022/09/27 01:34:04;;;;;;;3.83;2.20;;;12.90;1.00;;;;;;5027337;28;20430;-87
2022/09/27 01:36:42;;;;;;;4.70;3.03;;;12.90;1.00;;;;;;5007087;28;20466;-87
2022/09/27 01:39:23;;;;;;;3.40;2.57;;;12.90;1.00;;;;;;5036430;28;20552;-87
2022/09/27 01:42:00;;;;;;;4.57;2.80;;;13.00;1.00;;;;;;5027368;28;21294;-88
2022/09/27 01:44:34;;;;;;;6.53;2.80;;;13.00;1.00;;;;;;5033531;28;20456;-87
2022/09/27 01:47:17;;;;;;;4.23;2.67;;;13.00;1.00;;;;;;5036355;28;20434;-86
2022/09/27 01:49:52;;;;;;;3.57;2.77;;;13.00;1.00;;;;;;5035941;28;20515;-86
2022/09/27 01:52:28;;;;;;;4.37;2.30;;;13.00;1.00;;;;;;5033040;28;20457;-87
2022/09/27 01:57:50;;;;;;;5.83;2.67;;;13.00;1.00;;;;;;5027838;28;20552;-89
2022/09/27 02:00:18;;;;;;;3.80;2.00;;;13.10;1.00;;;;;;5046179;28;20448;-88
2022/09/27 02:03:10;;;;;;;3.93;2.67;;;13.10;1.00;;;;;;5026050;28;20498;-86
2022/09/27 02:05:47;;;;;;;3.37;2.43;;;13.10;1.00;;;;;;5014362;28;20980;-87
2022/09/27 02:08:35;;;;;;;3.80;2.20;;;13.10;1.00;;;;;;5036316;28;20434;-87
2022/09/27 02:11:16;;;;;;;4.10;2.40;;;13.10;1.00;;;;;;5016935;28;20451;-85
2022/09/27 02:13:48;;;;;;;4.33;2.40;;;13.10;1.00;;;;;;5013945;28;21335;-86
2022/09/27 02:16:35;;;;;;;3.97;2.60;;;13.10;1.00;;;;;;5023798;28;20444;-88
2022/09/27 02:19:12;;;;;;;4.20;2.63;;;13.20;1.00;;;;;;5006637;28;20470;-86
2022/09/27 02:21:44;;;;;;;3.97;2.20;;;13.20;1.00;;;;;;5039963;28;20468;-87
2022/09/27 02:24:16;;;;;;;4.50;2.17;;;13.20;1.00;;;;;;5030059;28;20465;-87
2022/09/27 02:26:49;;;;;;;3.60;1.90;;;13.20;1.00;;;;;;5033948;28;20543;-87
2022/09/27 02:32:08;;;;;;;4.47;1.90;;;13.30;1.00;;;;;;5024475;28;20978;-86
2022/09/27 02:35:21;;;;;;;3.50;2.27;;;13.30;1.00;;;;;;5026050;28;20473;-86
2022/09/27 02:37:53;;;;;;;4.50;2.30;;;13.40;1.00;;;;;;5034068;28;20414;-87
2022/09/27 02:40:23;;;;;;;3.27;2.20;;;13.40;1.00;;;;;;5010802;28;20640;-87
2022/09/27 02:42:58;;;;;;;4.50;2.60;;;13.40;1.00;;;;;;5004224;28;20449;-87
2022/09/27 02:45:50;;;;;;;4.13;2.83;;;13.40;1.00;;;;;;5016548;28;20516;-86
2022/09/27 02:48:31;;;;;;;3.70;2.57;;;13.50;1.00;;;;;;5028859;28;20532;-87
2022/09/27 02:51:36;;;;;;;5.50;2.63;;;13.50;1.00;;;;;;5030216;28;20680;-87
2022/09/27 02:54:29;;;;;;;4.83;2.40;;;13.50;1.00;;;;;;5027552;28;20493;-85
2022/09/27 02:57:25;;;;;;;4.37;2.20;;;13.40;1.00;;;;;;5010705;28;20433;-86
2022/09/27 03:00:25;;;;;;;4.47;2.63;;;13.40;1.00;;;;;;5027362;28;20481;-85
2022/09/27 03:03:18;;;;;;;5.40;2.50;;;13.30;1.00;;;;;;4999851;28;20437;-87
2022/09/27 03:08:59;;;;;;;;;;;;;;;;;;;;;
2022/09/27 03:11:39;;;;;;;3.60;2.40;;;13.20;1.00;;;;;;4970585;28;40939;-87
2022/09/27 03:17:19;;;;;;;4.47;2.70;;;13.20;1.00;;;;;;4947601;28;20462;-87
2022/09/27 03:19:58;;;;;;;4.20;2.60;;;13.20;1.00;;;;;;5024351;28;20441;-85
2022/09/27 03:22:30;;;;;;;3.40;2.23;;;13.20;1.00;;;;;;5022149;28;20426;-87
2022/09/27 03:25:02;;;;;;;5.00;3.17;;;13.20;1.00;;;;;;5023209;28;20457;-87
2022/09/27 03:27:32;;;;;;;4.40;2.40;;;13.20;1.00;;;;;;5042399;28;20434;-86
2022/09/27 03:32:57;;;;;;;4.57;2.63;;;13.30;1.00;;;;;;5031634;28;21187;-88
2022/09/27 03:35:49;;;;;;;3.67;2.50;;;13.30;1.00;;;;;;5038688;28;20463;-86
2022/09/27 03:41:32;;;;;;;;;;;;;;;;;;;;;
2022/09/27 03:44:01;;;;;;;4.60;2.87;;;13.20;1.00;;;;;;5042974;28;37193;-87
2022/09/27 03:46:42;;;;;;;4.33;2.40;;;13.20;1.00;;;;;;5043670;28;20460;-87
2022/09/27 03:49:22;;;;;;;;;;;;;;;;;;;;;
2022/09/27 03:52:09;;;;;;;4.63;3.43;;;13.00;1.00;;;;;;5037787;28;37308;-87
2022/09/27 03:54:42;;;;;;;4.20;3.10;;;12.70;1.00;;;;;;5030545;28;20458;-87
2022/09/27 03:58:01;;;;;;;4.40;3.03;;;12.50;1.00;;;;;;5045638;28;20448;-84
2022/09/27 04:00:42;;;;;;;;;;;;;;;;;;;;;
2022/09/27 04:06:21;;;;;;;5.83;3.30;;;12.10;1.00;;;;;;5019526;28;20608;-85
2022/09/27 04:09:12;;;;;;;5.13;3.00;;;12.00;1.00;;;;;;5035381;28;20456;-87
2022/09/27 04:12:31;;;;;;;6.17;3.20;;;12.00;1.00;;;;;;5046228;28;20436;-87
2022/09/27 04:15:30;;;;;;;7.03;2.93;;;12.00;1.00;;;;;;5024421;28;20413;-86
2022/09/27 04:18:22;;;;;;;4.77;2.90;;;12.00;1.00;;;;;;5030583;28;20492;-85
2022/09/27 04:20:53;;;;;;;4.53;2.70;;;12.00;1.00;;;;;;5039164;28;20465;-80
2022/09/27 04:37:11;;;;;;;4.73;3.20;;;12.10;1.00;;;;;;4924470;29;20409;-84
2022/09/27 04:39:43;;;;;;;5.63;3.13;;;12.10;1.00;;;;;;4919010;28;20473;-81
2022/09/27 04:42:20;;;;;;;5.63;3.73;;;12.10;1.00;;;;;;4933182;28;20458;-84
2022/09/27 04:44:53;;;;;;;5.40;2.93;;;12.10;1.00;;;;;;4972662;28;20442;-85
2022/09/27 04:47:30;;;;;;;4.93;2.80;;;12.00;1.00;;;;;;4983467;28;22859;-83
2022/09/27 04:50:10;;;;;;;6.83;2.90;;;12.00;1.00;;;;;;4980557;28;20448;-83
2022/09/27 04:52:46;;;;;;;5.57;2.90;;;11.90;1.00;;;;;;4979387;28;20423;-83
2022/09/27 04:55:22;;;;;;;4.93;3.30;;;11.90;1.00;;;;;;4982636;28;20486;-84
2022/09/27 04:58:00;;;;;;;4.80;2.73;;;11.90;1.00;;;;;;4993065;28;20431;-82
2022/09/27 05:00:43;;;;;;;;;;;;;;;;;;;;;
2022/09/27 05:03:12;;;;;;;5.53;3.07;;;11.80;1.00;;;;;;4977325;28;40195;-84
2022/09/27 05:05:51;;;;;;;5.77;3.30;;;11.70;1.00;;;;;;4976769;28;21332;-84
2022/09/27 05:08:31;;;;;;;7.90;3.00;;;11.70;1.00;;;;;;4976943;28;20496;-84
2022/09/27 05:11:01;;;;;;;6.60;2.93;;;11.70;1.00;;;;;;4975832;28;20451;-83
2022/09/27 05:13:32;;;;;;;5.77;3.40;;;11.70;1.00;;;;;;4985028;28;20486;-84
2022/09/27 05:19:11;;;;;;;6.43;3.57;;;11.80;1.00;;;;;;5018989;28;20440;-84
2022/09/27 05:21:43;;;;;;;6.20;3.20;;;11.80;1.00;;;;;;5006787;28;20575;-84
2022/09/27 05:24:12;;;;;;;5.30;3.00;;;11.70;1.00;;;;;;5003070;28;20454;-85
2022/09/27 05:27:03;;;;;;;;;;;;;;;;;;;;;
2022/09/27 05:46:29;;;;;;;6.17;3.50;;;11.40;1.00;;;;;;4919142;28;20453;-85
2022/09/27 05:49:30;;;;;;;9.80;3.97;;;11.30;1.00;;;;;;5033514;28;20406;-87
2022/09/27 05:52:05;;;;;;;8.00;3.30;;;11.30;1.00;;;;;;5015767;28;20459;-80
2022/09/27 05:54:32;;;;;;;5.87;3.13;;;11.30;1.00;;;;;;5023338;28;20607;-82
2022/09/27 05:57:02;;;;;;;9.80;3.07;;;11.30;1.00;;;;;;5018650;28;20466;-77
2022/09/27 05:59:31;;;;;;;10.13;3.90;;;11.30;1.00;;;;;;4992069;28;20558;-81
2022/09/27 06:02:03;;;;;;;13.07;4.37;;;11.30;1.00;;;;;;5019563;28;20448;-81
2022/09/27 06:04:30;;;;;;;9.60;3.80;;;11.40;1.00;;;;;;5021343;28;20407;-83
2022/09/27 06:07:01;;;;;;;7.50;3.60;;;11.30;1.00;;;;;;5025315;28;20435;-85
2022/09/27 06:09:43;;;;;;;;;;;;;;;;;;;;;
2022/09/27 06:12:12;;;;;;;6.57;3.30;;;11.30;1.00;;;;;;5012431;28;40573;-84
2022/09/27 06:14:42;;;;;;;8.70;3.30;;;11.30;1.00;;;;;;5010955;28;20434;-83
2022/09/27 06:17:23;;;;;;;7.40;3.43;;;11.30;1.00;;;;;;5026643;28;20616;-83
2022/09/27 06:19:53;;;;;;;7.70;3.53;;;11.30;1.00;;;;;;5001996;28;20556;-81
2022/09/27 06:22:20;;;;;;;9.47;3.77;;;11.20;1.00;;;;;;5039341;28;20436;-83
2022/09/27 06:24:50;;;;;;;9.55;4.07;;;11.30;1.00;;;;;;5041711;28;20627;-83
2022/09/27 06:27:21;;;;;;;6.67;3.80;;;11.30;1.00;;;;;;5041413;28;20234;-83
2022/09/27 06:29:54;;;;;;;9.17;3.53;;;11.30;1.00;;;;;;5043788;28;20416;-82
2022/09/27 06:32:23;;;;;;;9.93;4.20;;;11.30;1.00;;;;;;5039551;28;20508;-81
2022/09/27 06:34:50;;;;;;;8.77;3.57;;;11.30;1.00;;;;;;5042895;28;20429;-81
2022/09/27 06:37:46;;;;;;;8.87;4.07;;;11.30;1.00;;;;;;5032144;28;20421;-82
2022/09/27 06:40:13;;;;;;;7.70;4.90;;;11.40;1.00;;;;;;5034509;28;20548;-82
2022/09/27 06:42:43;;;;;;;9.53;5.27;;;11.40;1.00;;;;;;5044547;28;20452;-83
2022/09/27 06:48:03;;;;;;;12.80;5.23;;;11.50;1.00;;;;;;5005965;28;20458;-82
2022/09/27 06:51:00;;;;;;;12.43;5.30;;;11.50;1.00;;;;;;5035364;28;20477;-85
2022/09/27 06:53:28;;;;;;;11.17;5.10;;;11.50;1.00;;;;;;5025368;28;20473;-81
2022/09/27 06:55:59;;;;;;;15.13;5.60;;;11.60;1.00;;;;;;5020700;28;20420;-84
2022/09/27 07:01:19;;;;;;;8.50;4.80;;;11.50;1.00;;;;;;5036829;28;21236;-85
2022/09/27 07:04:04;;;;;;;10.27;5.50;;;11.40;1.00;;;;;;5029669;28;20467;-85
2022/09/27 07:09:27;;;;;;;8.47;4.83;;;11.40;1.00;;;;;;4958744;28;21362;-85
2022/09/27 07:11:57;;;;;;;10.60;5.23;;;11.40;1.00;;;;;;4989874;28;20507;-86
2022/09/27 07:14:27;;;;;;;9.30;5.23;;;11.40;1.00;;;;;;5032827;28;20413;-86
2022/09/27 07:17:12;;;;;;;10.57;5.10;;;11.40;1.00;;;;;;5042794;28;20464;-84
2022/09/27 07:19:46;;;;;;;11.20;5.30;;;11.40;1.00;;;;;;5032232;28;20505;-85
2022/09/27 07:22:40;;;;;;;8.70;4.63;;;11.50;1.00;;;;;;5031039;28;20406;-83
2022/09/27 07:25:07;;;;;;;10.23;5.63;;;11.50;1.00;;;;;;5021293;28;20568;-85
2022/09/27 07:27:37;;;;;;;10.17;5.50;;;11.60;1.00;;;;;;5040193;28;20441;-84
2022/09/27 07:30:07;;;;;;;9.37;5.13;;;11.70;1.00;;;;;;5032731;28;20457;-83
2022/09/27 07:32:35;;;;;;;9.80;5.63;;;11.80;1.00;;;;;;5031110;28;20454;-81
2022/09/27 07:35:07;;;;;;;10.03;5.00;;;11.70;1.00;;;;;;5027525;28;20469;-82
2022/09/27 07:37:36;;;;;;;9.10;4.90;;;11.70;1.00;;;;;;5033803;28;20540;-83
2022/09/27 07:40:08;;;;;;;11.03;4.90;;;11.60;1.00;;;;;;5032101;28;20517;-82
2022/09/27 07:42:36;;;;;;;10.13;5.70;;;11.60;1.00;;;;;;5032333;28;20458;-82
2022/09/27 07:45:05;;;;;;;11.70;7.53;;;11.60;1.00;;;;;;5030327;28;20564;-81
2022/09/27 07:47:36;;;;;;;9.83;5.00;;;11.60;1.00;;;;;;5029845;28;21240;-82
2022/09/27 07:50:05;;;;;;;10.70;4.90;;;11.60;1.00;;;;;;5028615;28;20517;-82
2022/09/27 07:52:40;;;;;;;7.83;4.63;;;11.60;1.00;;;;;;5019651;28;20473;-82
2022/09/27 07:55:09;;;;;;;9.80;5.20;;;11.60;1.00;;;;;;5019406;28;20442;-83
2022/09/27 07:57:37;;;;;;;9.07;4.87;;;11.70;1.00;;;;;;5030847;28;20425;-83
2022/09/27 08:00:05;;;;;;;7.40;3.80;;;11.70;1.00;;;;;;5010332;28;20489;-83
2022/09/27 08:02:33;;;;;;;8.70;5.10;;;11.80;1.00;;;;;;5032315;28;20501;-82
2022/09/27 08:05:00;;;;;;;7.10;3.93;;;11.70;1.00;;;;;;5027141;28;20477;-83
2022/09/27 08:07:31;;;;;;;7.87;4.13;;;11.70;1.00;;;;;;5027415;28;20454;-83
2022/09/27 08:09:58;;;;;;;8.50;4.27;;;11.70;1.00;;;;;;5028997;28;20449;-83
2022/09/27 08:12:25;;;;;;;7.17;4.10;;;11.70;1.00;;;;;;5032014;28;21173;-83
2022/09/27 08:14:52;;;;;;;7.60;3.70;;;11.70;1.00;;;;;;5034595;28;20465;-82
2022/09/27 08:17:20;;;;;;;9.50;4.73;;;11.70;1.00;;;;;;5027753;28;20535;-82
2022/09/27 08:19:48;;;;;;;11.07;4.30;;;11.60;1.00;;;;;;5030223;28;20488;-82
2022/09/27 08:22:16;;;;;;;8.10;3.53;;;11.60;1.00;;;;;;5033067;28;20457;-82
2022/09/27 08:24:44;;;;;;;8.40;3.53;;;11.60;1.00;;;;;;5029930;28;20428;-84
2022/09/27 08:27:12;;;;;;;8.23;3.77;;;11.60;1.00;;;;;;5031046;28;20464;-81
2022/09/27 08:29:40;;;;;;;13.03;4.87;;;11.60;1.00;;;;;;5032026;28;20461;-82
2022/09/27 08:32:07;;;;;;;10.60;4.70;;;11.60;1.00;;;;;;5026224;28;20488;-81
2022/09/27 08:34:35;;;;;;;7.93;4.33;;;11.60;1.00;;;;;;5029137;28;20538;-81
2022/09/27 08:37:03;;;;;;;8.23;4.37;;;11.60;1.00;;;;;;5033102;28;21228;-82
2022/09/27 08:39:31;;;;;;;9.53;4.73;;;11.60;1.00;;;;;;5033773;28;20467;-83
2022/09/27 08:42:16;;;;;;;8.20;4.77;;;11.60;1.00;;;;;;5015005;28;20555;-81
2022/09/27 08:44:54;;;;;;;9.40;5.40;;;11.70;1.00;;;;;;5032521;28;20473;-81
2022/09/27 08:47:27;;;;;;;9.73;6.13;;;11.70;1.00;;;;;;5031422;28;20461;-84
2022/09/27 08:49:58;;;;;;;8.90;5.43;;;11.80;1.00;;;;;;5029893;28;20471;-83
2022/09/27 08:52:33;;;;;;;14.90;6.40;;;11.80;1.00;;;;;;5035316;28;20424;-82
2022/09/27 08:55:06;;;;;;;9.40;5.73;;;11.90;1.00;;;;;;5030926;28;20479;-83
2022/09/27 08:57:36;;;;;;;11.43;4.87;;;12.00;1.00;;;;;;5032911;28;20465;-83
2022/09/27 09:00:08;;;;;;;11.03;6.07;;;11.90;1.00;;;;;;5029749;28;21378;-83
2022/09/27 09:02:37;;;;;;;8.60;4.87;;;12.00;1.00;;;;;;5028656;28;20461;-82
2022/09/27 09:05:10;;;;;;;9.10;5.47;;;12.00;1.00;;;;;;5031882;28;20962;-82
2022/09/27 09:08:07;;;;;;;8.10;4.60;;;12.00;1.00;;;;;;5031294;28;20460;-82
2022/09/27 09:14:15;;;;;;;9.33;5.67;;;12.00;1.00;;;;;;5023171;28;21115;-84
2022/09/27 09:16:51;;;;;;;9.30;4.70;;;12.00;1.00;;;;;;4949307;28;20528;-82
2022/09/27 09:19:36;;;;;;;12.10;6.17;;;12.00;1.00;;;;;;4951056;28;21259;-80
2022/09/27 09:22:20;;;;;;;7.10;3.97;;;12.10;1.00;;;;;;5001983;28;20450;-82
2022/09/27 09:24:58;;;;;;;8.60;4.23;;;12.10;1.00;;;;;;5020545;28;20536;-83
2022/09/27 09:27:37;;;;;;;7.40;4.53;;;12.10;1.00;;;;;;5030356;28;20627;-82
2022/09/27 09:30:19;;;;;;;8.43;4.53;;;12.10;1.00;;;;;;5019540;28;20457;-79
2022/09/27 09:32:57;;;;;;;8.00;4.60;;;12.20;1.00;;;;;;5028978;28;20495;-81
2022/09/27 09:35:28;;;;;;;9.37;4.83;;;12.30;1.00;;;;;;5018858;28;20538;-82
2022/09/27 09:37:59;;;;;;;8.10;4.60;;;12.40;1.00;;;;;;5025739;28;20939;-83
2022/09/27 09:40:32;;;;;;;7.87;4.20;;;12.60;1.00;;;;;;5030577;28;21007;-83
2022/09/27 09:43:02;;;;;;;8.00;4.53;;;12.70;1.00;;;;;;5033208;28;21748;-83
2022/09/27 09:45:44;;;;;;;8.30;4.20;;;12.80;1.00;;;;;;5031047;28;20449;-83
2022/09/27 09:48:23;;;;;;;8.83;4.20;;;12.80;1.00;;;;;;5032443;28;20477;-82
2022/09/27 09:50:54;;;;;;;8.70;5.30;;;12.90;1.00;;;;;;5031990;28;20461;-83
2022/09/27 09:53:36;;;;;;;10.87;4.80;;;12.90;1.00;;;;;;5031166;28;20548;-82
2022/09/27 09:56:08;;;;;;;8.20;3.77;;;12.90;1.00;;;;;;5033697;28;20431;-81
2022/09/27 09:58:44;;;;;;;9.83;4.47;;;12.90;1.00;;;;;;5030450;28;20466;-83
2022/09/27 10:01:19;;;;;;;9.63;4.23;;;12.90;1.00;;;;;;5031198;28;20429;-82
2022/09/27 10:03:47;;;;;;;9.17;4.43;;;12.90;1.00;;;;;;5036617;28;20461;-80
2022/09/27 10:06:15;;;;;;;6.93;3.70;;;13.10;1.00;;;;;;5034297;28;21308;-83
2022/09/27 10:08:44;;;;;;;7.47;3.40;;;13.40;1.00;;;;;;5035014;28;20495;-83
2022/09/27 10:11:20;;;;;;;8.93;3.60;;;13.60;1.00;;;;;;5031072;28;21252;-81
2022/09/27 10:13:49;;;;;;;7.00;3.13;;;13.80;1.00;;;;;;5037082;28;20511;-84
2022/09/27 10:16:20;;;;;;;8.10;3.10;;;13.70;1.00;;;;;;5035327;28;20992;-81
2022/09/27 10:18:49;;;;;;;12.57;3.60;;;13.70;1.00;;;;;;5033957;28;20556;-82
2022/09/27 10:21:21;;;;;;;7.80;3.50;;;13.70;1.00;;;;;;5029482;28;20453;-84
2022/09/27 10:24:07;;;;;;;9.37;3.40;;;13.80;1.00;;;;;;5020823;28;20462;-83
2022/09/27 10:26:36;;;;;;;7.97;3.47;;;14.00;1.00;;;;;;5029996;28;20488;-83
2022/09/27 10:29:22;;;;;;;8.40;3.30;;;13.90;1.00;;;;;;5031013;28;23960;-82
2022/09/27 10:31:55;;;;;;;7.60;3.50;;;13.80;1.00;;;;;;5035435;28;20568;-83
2022/09/27 10:34:28;;;;;;;6.93;3.60;;;13.60;1.00;;;;;;5014185;28;21285;-83
2022/09/27 10:37:22;;;;;;;7.43;3.10;;;13.60;1.00;;;;;;5027205;28;20477;-84
2022/09/27 10:39:51;;;;;;;8.17;3.60;;;13.80;1.00;;;;;;5021742;28;20521;-82
2022/09/27 10:42:30;;;;;;;7.27;3.63;;;13.80;1.00;;;;;;5033937;28;20457;-82
2022/09/27 10:44:57;;;;;;;7.33;3.50;;;13.80;1.00;;;;;;5029483;28;20583;-83
2022/09/27 10:47:26;;;;;;;8.50;3.90;;;13.90;1.00;;;;;;5017007;28;20468;-81
2022/09/27 10:50:06;;;;;;;6.77;3.50;;;14.20;1.00;;;;;;5029373;28;20947;-83
2022/09/27 10:52:35;;;;;;;9.47;3.27;;;14.40;1.00;;;;;;5026525;28;20464;-82
2022/09/27 10:55:16;;;;;;;7.80;3.40;;;14.70;1.00;;;;;;5033463;28;20520;-81
2022/09/27 11:01:40;;;;;;;7.20;2.90;;;15.50;1.00;;;;;;4920149;28;20864;-85
2022/09/27 11:04:25;;;;;;;8.67;3.10;;;16.90;1.00;;;;;;4984978;28;20468;-84
2022/09/27 11:06:53;;;;;;;7.90;3.00;;;18.20;1.00;;;;;;5015966;28;20902;-85
2022/09/27 11:09:26;;;;;;;12.73;2.80;;;19.70;1.00;;;;;;5014622;28;20483;-84
2022/09/27 11:12:10;;;;;;;7.03;2.27;;;19.90;1.00;;;;;;5015359;28;20501;-84
2022/09/27 11:14:43;;;;;;;7.30;2.90;;;18.90;1.00;;;;;;5034553;28;21393;-84
2022/09/27 11:17:27;;;;;;;6.40;2.90;;;18.10;1.00;;;;;;5015866;28;20469;-86
2022/09/27 11:20:20;;;;;;;6.90;3.17;;;17.50;1.00;;;;;;5013368;28;21692;-86
2022/09/27 11:23:16;;;;;;;5.90;2.50;;;17.00;1.00;;;;;;5036673;28;20483;-87
2022/09/27 11:25:57;;;;;;;7.27;3.37;;;16.70;1.00;;;;;;5025233;28;20465;-85
2022/09/27 11:32:41;;;;;;;6.20;2.90;;;16.40;1.00;;;;;;4902381;28;20506;-85
2022/09/27 11:35:56;;;;;;;8.77;3.17;;;16.40;1.00;;;;;;4943386;28;20481;-86
2022/09/27 11:38:28;;;;;;;7.53;3.30;;;16.10;1.00;;;;;;5025432;28;20468;-86
2022/09/27 11:41:17;;;;;;;7.83;3.40;;;15.60;1.00;;;;;;5015806;28;20998;-86
2022/09/27 11:44:11;;;;;;;6.90;3.13;;;15.50;1.00;;;;;;5043030;28;20455;-86
2022/09/27 11:46:41;;;;;;;6.80;3.00;;;15.30;1.00;;;;;;5033725;28;20625;-87
2022/09/27 11:49:24;;;;;;;7.60;4.00;;;15.20;1.00;;;;;;5036180;28;22262;-85
2022/09/27 11:52:11;;;;;;;7.27;2.87;;;15.00;1.00;;;;;;5034983;28;21325;-85
2022/09/27 11:54:51;;;;;;;7.13;3.60;;;14.90;1.00;;;;;;5036626;28;20420;-86
2022/09/27 11:57:25;;;;;;;9.13;4.00;;;14.80;1.00;;;;;;5017670;28;20446;-85
2022/09/27 12:00:15;;;;;;;6.40;2.50;;;14.70;1.00;;;;;;5030384;28;20542;-89
2022/09/27 12:03:07;;;;;;;6.87;1.80;;;14.10;1.00;;;;;;5039340;28;20432;-86
2022/09/27 12:05:51;;;;;;;7.70;1.97;;;13.10;1.00;;;;;;5038506;28;20461;-86
2022/09/27 12:08:42;;;;;;;7.47;1.67;;;12.40;1.00;;;;;;5035046;28;20647;-85
2022/09/27 12:11:20;;;;;;;6.93;1.90;;;12.00;1.00;;;;;;5037489;28;20588;-84
2022/09/27 12:13:53;;;;;;;5.80;1.53;;;11.70;1.00;;;;;;5036600;28;21041;-84
2022/09/27 12:16:22;;;;;;;7.90;2.50;;;11.60;1.00;;;;;;5037220;28;20466;-84
2022/09/27 12:18:53;;;;;;;5.60;1.60;;;11.50;1.00;;;;;;5025211;28;20489;-86
2022/09/27 12:21:25;;;;;;;5.40;1.20;;;11.30;1.00;;;;;;5032434;28;20813;-86
2022/09/27 12:23:56;;;;;;;6.60;2.00;;;11.30;1.00;;;;;;5014144;28;20468;-85
2022/09/27 12:26:28;;;;;;;7.57;2.93;;;11.30;1.00;;;;;;5016490;28;20898;-86
2022/09/27 12:28:58;;;;;;;7.77;2.40;;;11.30;1.00;;;;;;5016669;28;20454;-83
2022/09/27 12:31:32;;;;;;;7.30;2.10;;;11.40;1.00;;;;;;5013965;28;20478;-87
2022/09/27 12:34:14;;;;;;;6.50;2.33;;;11.50;1.00;;;;;;5027024;28;20594;-85
2022/09/27 12:36:48;;;;;;;6.50;2.63;;;11.60;1.00;;;;;;5037741;28;20460;-84
2022/09/27 12:39:23;;;;;;;7.27;2.93;;;11.70;1.00;;;;;;5033540;28;20479;-87
2022/09/27 12:42:00;;;;;;;7.73;3.47;;;11.80;1.00;;;;;;5031825;28;20511;-86
2022/09/27 12:44:33;;;;;;;8.03;3.50;;;12.10;1.00;;;;;;5036220;28;20515;-84
2022/09/27 12:47:10;;;;;;;7.47;3.40;;;12.80;1.00;;;;;;5038469;28;20460;-87
2022/09/27 12:49:48;;;;;;;9.33;3.47;;;13.20;1.00;;;;;;5038022;28;20951;-87
2022/09/27 12:52:24;;;;;;;9.07;3.50;;;13.50;1.00;;;;;;5040208;28;20448;-89
2022/09/27 12:55:24;;;;;;;7.17;3.70;;;13.60;1.00;;;;;;5034627;28;20497;-84
2022/09/27 12:58:16;;;;;;;7.90;3.63;;;13.70;1.00;;;;;;5004204;28;20548;-79
2022/09/27 13:00:51;;;;;;;7.00;3.30;;;13.80;1.00;;;;;;5013391;28;20465;-82
2022/09/27 13:03:57;;;;;;;9.53;5.30;;;13.80;1.00;;;;;;5028097;28;20456;-82
2022/09/27 13:06:48;;;;;;;6.30;2.97;;;13.90;1.00;;;;;;5022694;28;20459;-83
2022/09/27 13:09:36;;;;;;;7.90;3.77;;;13.90;1.00;;;;;;5018487;28;21037;-84
2022/09/27 13:12:10;;;;;;;7.50;3.13;;;13.90;1.00;;;;;;5022459;28;20470;-82
2022/09/27 13:14:46;;;;;;;6.90;3.03;;;14.00;1.00;;;;;;5009551;28;20426;-82
2022/09/27 13:17:32;;;;;;;6.77;2.60;;;14.10;1.00;;;;;;5012105;28;20850;-83
2022/09/27 13:20:41;;;;;;;7.00;1.90;;;14.10;1.00;;;;;;5016768;28;20474;-83
2022/09/27 13:23:49;;;;;;;7.13;2.50;;;13.90;1.00;;;;;;5026797;28;21010;-81
2022/09/27 13:26:24;;;;;;;5.80;2.13;;;13.90;1.00;;;;;;5034069;28;20458;-82
2022/09/27 13:29:04;;;;;;;5.90;1.90;;;13.60;1.00;;;;;;5019753;28;20544;-83
2022/09/27 13:32:14;;;;;;;6.90;2.40;;;13.40;1.00;;;;;;5033046;28;20453;-82
2022/09/27 13:34:44;;;;;;;6.43;2.63;;;13.20;1.00;;;;;;5032350;28;20433;-82
2022/09/27 13:40:48;;;;;;;5.80;2.10;;;13.00;1.00;;;;;;5020139;28;20447;-82
2022/09/27 13:43:56;;;;;;;6.33;3.33;;;13.20;1.00;;;;;;5017285;28;20489;-84
2022/09/27 13:46:50;;;;;;;7.53;3.13;;;13.50;1.00;;;;;;4985520;28;20631;-86
2022/09/27 13:49:28;;;;;;;6.60;3.00;;;13.80;1.00;;;;;;5008711;28;21016;-88
2022/09/27 13:52:28;;;;;;;6.40;3.30;;;13.90;1.00;;;;;;5029632;28;20517;-86
2022/09/27 13:54:58;;;;;;;6.40;2.93;;;13.90;1.00;;;;;;5033700;28;21290;-86
2022/09/27 13:57:54;;;;;;;6.53;2.80;;;13.80;1.00;;;;;;5017193;28;20496;-87
2022/09/27 14:00:25;;;;;;;7.20;3.50;;;13.70;1.00;;;;;;5035261;28;20434;-84
2022/09/27 14:03:01;;;;;;;6.00;2.60;;;13.70;1.00;;;;;;5024939;28;20464;-86
2022/09/27 14:05:38;;;;;;;7.47;3.07;;;13.50;1.00;;;;;;5023257;28;20471;-83
2022/09/27 14:08:07;;;;;;;7.60;3.27;;;13.40;1.00;;;;;;5035149;28;20524;-83
2022/09/27 14:10:35;;;;;;;6.60;2.90;;;13.30;1.00;;;;;;5033543;28;20480;-84
2022/09/27 14:13:06;;;;;;;8.77;3.20;;;13.20;1.00;;;;;;5033583;28;20552;-84
2022/09/27 14:15:46;;;;;;;6.93;3.40;;;13.10;1.00;;;;;;5023062;28;21232;-83
2022/09/27 14:18:16;;;;;;;6.90;3.03;;;13.10;1.00;;;;;;5038662;28;20452;-81
2022/09/27 14:20:46;;;;;;;7.00;3.90;;;13.20;1.00;;;;;;5032920;28;21347;-85
2022/09/27 14:23:21;;;;;;;7.80;3.93;;;13.10;1.00;;;;;;5038470;28;20532;-83
2022/09/27 14:25:50;;;;;;;7.53;4.30;;;13.10;1.00;;;;;;5032085;28;20848;-83
2022/09/27 14:28:23;;;;;;;6.27;2.50;;;13.10;1.00;;;;;;5014342;28;20482;-83
2022/09/27 14:31:15;;;;;;;5.73;2.00;;;13.10;1.00;;;;;;5012373;28;20542;-81
2022/09/27 14:33:44;;;;;;;6.40;2.90;;;13.00;1.00;;;;;;5007639;28;22734;-82
2022/09/27 14:39:20;;;;;;;5.67;1.87;;;13.10;1.00;;;;;;5009167;28;20560;-83
2022/09/27 14:41:47;;;;;;;7.17;2.60;;;13.30;1.00;;;;;;5009303;28;20448;-82
2022/09/27 14:44:20;;;;;;;6.40;1.97;;;13.40;1.00;;;;;;5026044;28;20483;-82
2022/09/27 14:46:47;;;;;;;6.03;2.00;;;13.50;1.00;;;;;;5028994;28;20536;-80
2022/09/27 14:49:23;;;;;;;5.60;1.60;;;13.50;1.00;;;;;;5026078;28;20607;-81
2022/09/27 14:51:55;;;;;;;5.30;1.60;;;13.50;1.00;;;;;;5019963;28;21001;-85
2022/09/27 14:54:25;;;;;;;6.40;1.90;;;13.40;1.00;;;;;;5027926;28;21265;-80
2022/09/27 14:56:57;;;;;;;5.93;2.27;;;13.30;1.00;;;;;;5034298;28;20447;-81
2022/09/27 14:59:29;;;;;;;5.90;2.07;;;13.30;1.00;;;;;;5032387;28;20473;-84
2022/09/27 15:02:00;;;;;;;5.83;1.90;;;13.30;1.00;;;;;;5035787;28;20453;-83
2022/09/27 15:04:32;;;;;;;6.00;1.90;;;13.20;1.00;;;;;;5037437;28;21330;-83
2022/09/27 15:07:03;;;;;;;6.37;2.20;;;13.20;1.00;;;;;;5036514;28;21304;-83
2022/09/27 15:09:31;;;;;;;6.33;2.30;;;13.20;1.00;;;;;;5033451;28;20472;-84
2022/09/27 15:12:01;;;;;;;6.70;2.43;;;13.30;1.00;;;;;;5039298;28;20461;-85
2022/09/27 15:14:32;;;;;;;7.60;3.33;;;13.30;1.00;;;;;;5023140;28;20460;-84
2022/09/27 15:17:04;;;;;;;7.70;3.03;;;13.40;1.00;;;;;;5036155;28;21156;-83
2022/09/27 15:19:33;;;;;;;7.40;3.10;;;13.40;1.00;;;;;;5004661;28;20452;-83
2022/09/27 15:22:32;;;;;;;7.40;2.87;;;13.40;1.00;;;;;;5033138;28;20824;-84